createdAt,value
2019-01-06T00:01:47.824Z,14.80
2019-01-06T00:04:42.219Z,12.40
2019-01-06T00:07:34.883Z,11.43
2019-01-06T00:13:08.281Z,10.83
2019-01-06T00:16:00.949Z,10.97
2019-01-06T00:18:53.603Z,9.07
2019-01-06T00:21:46.240Z,10.13
2019-01-06T00:24:38.879Z,11.03
2019-01-06T00:27:31.549Z,9.63
2019-01-06T00:33:30.589Z,11.33
2019-01-06T00:36:23.219Z,10.40
2019-01-06T00:39:16.434Z,11.27
2019-01-06T00:45:03.558Z,10.77
2019-01-06T00:50:50.323Z,9.20
2019-01-06T00:53:42.991Z,9.57
2019-01-06T00:56:35.632Z,8.23
2019-01-06T00:59:28.200Z,8.30
2019-01-06T01:02:20.861Z,9.07
2019-01-06T01:05:13.506Z,8.83
2019-01-06T01:08:25.448Z,8.80
2019-01-06T01:11:18.081Z,8.93
2019-01-06T01:14:10.743Z,7.70
2019-01-06T01:17:03.387Z,8.63
2019-01-06T01:22:55.844Z,8.43
2019-01-06T01:28:48.182Z,8.57
2019-01-06T01:31:40.861Z,8.17
2019-01-06T01:34:53.557Z,8.60
2019-01-06T01:37:46.206Z,8.70
2019-01-06T01:43:24.315Z,8.83
2019-01-06T01:49:11.352Z,8.90
2019-01-06T01:52:03.989Z,8.93
2019-01-06T01:54:57.042Z,8.53
2019-01-06T01:57:49.681Z,9.03
2019-01-06T02:03:22.519Z,8.90
2019-01-06T02:08:55.603Z,8.67
2019-01-06T02:11:48.251Z,9.33
2019-01-06T02:14:41.048Z,9.00
2019-01-06T02:17:33.711Z,9.70
2019-01-06T02:20:26.624Z,7.90
2019-01-06T02:23:19.388Z,8.80
2019-01-06T02:26:12.095Z,7.40
2019-01-06T02:29:04.753Z,9.17
2019-01-06T02:31:57.447Z,9.60
2019-01-06T02:37:44.294Z,10.03
2019-01-06T02:40:37.004Z,8.90
2019-01-06T02:43:29.730Z,8.57
2019-01-06T02:49:16.509Z,9.47
2019-01-06T02:57:47.878Z,10.47
2019-01-06T03:00:40.541Z,9.57
2019-01-06T03:03:33.502Z,11.93
2019-01-06T03:06:26.266Z,14.60
2019-01-06T03:09:18.987Z,11.60
2019-01-06T03:12:11.665Z,11.30
2019-01-06T03:20:32.141Z,13.13
2019-01-06T03:23:24.785Z,10.67
2019-01-06T03:26:17.492Z,11.57
2019-01-06T03:29:10.165Z,12.37
2019-01-06T03:34:47.282Z,11.23
2019-01-06T03:37:39.931Z,10.90
2019-01-06T03:40:32.643Z,15.33
2019-01-06T03:46:19.589Z,11.40
2019-01-06T03:49:12.277Z,15.47
2019-01-06T03:52:04.979Z,11.03
2019-01-06T03:57:51.779Z,12.37
2019-01-06T04:00:44.455Z,12.07
2019-01-06T04:06:21.784Z,11.90
2019-01-06T04:09:14.435Z,12.97
2019-01-06T04:14:47.584Z,11.20
2019-01-06T04:17:40.248Z,11.80
2019-01-06T04:20:32.949Z,13.27
2019-01-06T04:23:25.612Z,11.30
2019-01-06T04:26:18.446Z,11.30
2019-01-06T04:29:11.103Z,11.13
2019-01-06T04:32:03.897Z,11.67
2019-01-06T04:34:56.549Z,11.30
2019-01-06T04:37:49.359Z,11.70
2019-01-06T04:40:42.008Z,11.97
2019-01-06T04:43:34.825Z,12.50
2019-01-06T04:46:27.484Z,11.33
2019-01-06T04:54:44.777Z,11.20
2019-01-06T04:57:37.545Z,11.73
2019-01-06T05:00:30.243Z,11.30
2019-01-06T05:03:22.895Z,11.57
2019-01-06T05:06:15.595Z,15.00
2019-01-06T05:09:08.249Z,11.90
2019-01-06T05:12:00.952Z,11.60
2019-01-06T05:14:53.603Z,10.93
2019-01-06T05:17:46.329Z,10.53
2019-01-06T05:20:39.004Z,10.47
2019-01-06T05:26:11.903Z,15.43
2019-01-06T05:29:04.554Z,9.63
2019-01-06T05:31:57.246Z,9.97
2019-01-06T05:34:49.921Z,10.47
2019-01-06T05:37:42.724Z,10.37
2019-01-06T05:40:35.399Z,13.00
2019-01-06T05:43:28.100Z,10.47
2019-01-06T05:46:20.750Z,11.27
2019-01-06T05:49:13.466Z,14.00
2019-01-06T05:55:00.295Z,17.17
2019-01-06T05:57:52.950Z,15.90
2019-01-06T06:00:45.738Z,15.17
2019-01-06T06:03:38.395Z,12.73
2019-01-06T06:06:31.111Z,12.20
2019-01-06T06:12:36.946Z,12.90
2019-01-06T06:15:29.610Z,12.53
2019-01-06T06:18:22.334Z,12.07
2019-01-06T06:21:14.993Z,12.47
2019-01-06T06:24:07.764Z,11.93
2019-01-06T06:27:00.421Z,11.63
2019-01-06T06:29:53.223Z,12.60
2019-01-06T06:32:45.879Z,11.87
2019-01-06T06:35:38.669Z,12.93
2019-01-06T06:38:31.328Z,13.27
2019-01-06T06:41:24.038Z,14.70
2019-01-06T06:44:16.720Z,13.83
2019-01-06T06:47:09.396Z,13.23
2019-01-06T06:50:02.078Z,14.83
2019-01-06T06:52:54.930Z,12.63
2019-01-06T06:55:47.592Z,13.10
2019-01-06T07:01:45.197Z,14.47
2019-01-06T07:04:37.869Z,14.77
2019-01-06T07:10:14.296Z,14.97
2019-01-06T07:16:01.097Z,14.90
2019-01-06T07:18:53.759Z,14.30
2019-01-06T07:21:47.804Z,12.83
2019-01-06T07:27:35.082Z,15.17
2019-01-06T07:30:27.746Z,16.20
2019-01-06T07:33:20.442Z,15.70
2019-01-06T07:36:13.112Z,17.17
2019-01-06T07:41:50.285Z,15.90
2019-01-06T07:44:42.961Z,16.80
2019-01-06T07:47:35.664Z,16.67
2019-01-06T07:53:22.535Z,16.67
2019-01-06T07:59:09.389Z,14.80
2019-01-06T08:02:02.086Z,15.27
2019-01-06T08:04:54.834Z,17.53
2019-01-06T08:07:47.500Z,14.73
2019-01-06T08:10:40.238Z,15.63
2019-01-06T08:19:07.244Z,15.30
2019-01-06T08:21:59.898Z,16.33
2019-01-06T08:24:52.709Z,15.60
2019-01-06T08:27:45.372Z,14.90
2019-01-06T08:30:38.078Z,15.67
2019-01-06T08:33:30.785Z,15.20
2019-01-06T08:36:23.476Z,15.97
2019-01-06T08:39:16.160Z,16.20
2019-01-06T08:42:08.948Z,15.90
2019-01-06T08:45:01.631Z,15.60
2019-01-06T08:53:22.353Z,17.20
2019-01-06T08:59:09.205Z,16.83
2019-01-06T09:02:01.885Z,17.07
2019-01-06T09:04:54.595Z,17.00
2019-01-06T09:07:47.247Z,16.27
2019-01-06T09:13:20.590Z,17.13
2019-01-06T09:16:13.288Z,18.83
2019-01-06T09:19:06.035Z,17.77
2019-01-06T09:21:58.704Z,18.70
2019-01-06T09:24:51.413Z,29.03
2019-01-06T09:27:44.077Z,39.40
2019-01-06T09:30:36.783Z,26.53
2019-01-06T09:33:29.463Z,24.30
2019-01-06T09:36:22.159Z,19.30
2019-01-06T09:42:20.955Z,16.03
2019-01-06T09:45:13.621Z,15.80
2019-01-06T09:48:06.324Z,14.33
2019-01-06T09:50:59.000Z,14.93
2019-01-06T09:53:51.699Z,13.57
2019-01-06T09:56:44.360Z,13.30
2019-01-06T09:59:37.156Z,13.67
2019-01-06T10:02:29.825Z,13.73
2019-01-06T10:05:22.696Z,13.70
2019-01-06T10:08:15.360Z,13.77
2019-01-06T10:11:08.061Z,13.30
2019-01-06T10:14:02.628Z,13.43
2019-01-06T10:16:55.385Z,12.50
2019-01-06T10:25:22.657Z,12.30
2019-01-06T10:28:15.408Z,12.50
2019-01-06T10:31:08.089Z,17.13
2019-01-06T10:34:00.760Z,16.97
2019-01-06T10:36:53.469Z,15.20
2019-01-06T10:39:46.147Z,13.40
2019-01-06T10:42:38.936Z,14.03
2019-01-06T10:48:25.760Z,13.93
2019-01-06T10:51:18.437Z,12.33
2019-01-06T10:54:11.137Z,12.10
2019-01-06T10:57:03.810Z,13.57
2019-01-06T10:59:56.501Z,13.27
2019-01-06T11:02:49.184Z,12.10
2019-01-06T11:05:41.968Z,12.73
2019-01-06T11:08:34.630Z,14.43
2019-01-06T11:11:27.413Z,15.10
2019-01-06T11:17:14.213Z,11.70
2019-01-06T11:20:06.809Z,10.87
2019-01-06T11:22:59.503Z,12.70
2019-01-06T11:25:52.173Z,10.73
2019-01-06T11:28:44.872Z,10.77
2019-01-06T11:31:37.530Z,8.60
2019-01-06T11:34:30.222Z,8.10
2019-01-06T11:37:22.890Z,8.60
2019-01-06T11:40:15.589Z,8.10
2019-01-06T11:43:08.252Z,8.10
2019-01-06T11:46:00.954Z,7.77
2019-01-06T11:54:28.158Z,6.20
2019-01-06T12:00:14.937Z,5.63
2019-01-06T12:03:07.603Z,5.87
2019-01-06T12:08:41.378Z,5.20
2019-01-06T12:11:35.170Z,5.17
2019-01-06T12:14:27.867Z,5.40
2019-01-06T12:17:20.513Z,5.67
2019-01-06T12:20:13.405Z,4.90
2019-01-06T12:23:06.066Z,5.53
2019-01-06T12:25:58.761Z,6.00
2019-01-06T12:31:45.623Z,5.00
2019-01-06T12:34:38.285Z,5.57
2019-01-06T12:37:30.978Z,5.63
2019-01-06T12:43:42.781Z,5.80
2019-01-06T12:46:35.442Z,4.87
2019-01-06T12:49:28.153Z,5.97
2019-01-06T12:52:20.872Z,6.13
2019-01-06T12:57:53.862Z,6.20
2019-01-06T13:00:46.531Z,6.27
2019-01-06T13:03:39.224Z,5.73
2019-01-06T13:09:46.779Z,6.90
2019-01-06T13:12:39.452Z,8.63
2019-01-06T13:18:15.934Z,8.43
2019-01-06T13:21:08.602Z,6.37
2019-01-06T13:24:01.286Z,6.23
2019-01-06T13:26:53.961Z,6.53
2019-01-06T13:29:46.827Z,6.57
2019-01-06T13:35:33.598Z,6.37
2019-01-06T13:38:26.275Z,6.30
2019-01-06T13:41:19.062Z,5.23
2019-01-06T13:44:11.731Z,4.90
2019-01-06T13:47:04.425Z,4.87
2019-01-06T13:55:35.825Z,5.03
2019-01-06T13:58:30.651Z,5.33
2019-01-06T14:01:23.452Z,5.63
2019-01-06T14:04:16.203Z,4.83
2019-01-06T14:07:08.925Z,5.17
2019-01-06T14:10:01.589Z,4.67
2019-01-06T14:15:38.357Z,4.83
2019-01-06T14:18:31.013Z,4.80
2019-01-06T14:21:23.721Z,5.10
2019-01-06T14:24:16.381Z,6.20
2019-01-06T14:27:09.110Z,8.53
2019-01-06T14:30:01.768Z,5.47
2019-01-06T14:32:54.481Z,4.30
2019-01-06T14:35:47.147Z,4.00
2019-01-06T14:38:39.857Z,3.47
2019-01-06T14:41:32.513Z,3.67
2019-01-06T14:44:25.229Z,4.20
2019-01-06T14:47:17.881Z,3.83
2019-01-06T14:50:10.582Z,3.70
2019-01-06T14:53:03.234Z,3.20
2019-01-06T14:55:55.953Z,3.30
2019-01-06T14:58:48.612Z,2.97
2019-01-06T15:01:41.407Z,3.27
2019-01-06T15:04:34.092Z,3.30
2019-01-06T15:10:07.442Z,3.67
2019-01-06T15:15:54.236Z,3.27
2019-01-06T15:18:46.894Z,3.30
2019-01-06T15:24:26.633Z,3.70
2019-01-06T15:27:19.403Z,3.40
2019-01-06T15:30:12.072Z,3.17
2019-01-06T15:35:45.037Z,3.70
2019-01-06T15:38:37.749Z,4.17
2019-01-06T15:41:30.401Z,3.70
2019-01-06T15:44:23.214Z,3.37
2019-01-06T15:47:15.866Z,3.60
2019-01-06T15:52:48.823Z,3.67
2019-01-06T15:55:41.594Z,3.50
2019-01-06T15:58:34.274Z,3.40
2019-01-06T16:04:26.693Z,3.50
2019-01-06T16:07:19.418Z,3.50
2019-01-06T16:10:12.077Z,3.60
2019-01-06T16:13:04.774Z,3.87
2019-01-06T16:15:57.433Z,3.53
2019-01-06T16:24:11.272Z,3.73
2019-01-06T16:27:03.925Z,4.53
2019-01-06T16:29:56.617Z,4.00
2019-01-06T16:32:49.281Z,3.80
2019-01-06T16:35:41.987Z,4.47
2019-01-06T16:38:34.648Z,3.80
2019-01-06T16:41:27.442Z,3.83
2019-01-06T16:44:20.095Z,4.10
2019-01-06T16:47:12.798Z,4.00
2019-01-06T16:50:05.464Z,4.03
2019-01-06T16:52:58.146Z,4.50
2019-01-06T16:58:44.933Z,3.63
2019-01-06T17:01:37.565Z,4.57
2019-01-06T17:07:10.723Z,6.13
2019-01-06T17:10:03.518Z,4.57
2019-01-06T17:12:56.181Z,5.13
2019-01-06T17:18:33.268Z,3.83
2019-01-06T17:21:25.862Z,3.73
2019-01-06T17:24:18.573Z,3.50
2019-01-06T17:27:11.237Z,3.30
2019-01-06T17:30:03.939Z,4.07
2019-01-06T17:32:56.635Z,5.63
2019-01-06T17:35:49.327Z,4.07
2019-01-06T17:38:42.016Z,3.90
2019-01-06T17:41:34.800Z,3.47
2019-01-06T17:47:21.597Z,3.87
2019-01-06T17:50:14.231Z,3.50
2019-01-06T17:53:06.934Z,4.10
2019-01-06T17:55:59.596Z,3.77
2019-01-06T17:58:52.332Z,3.90
2019-01-06T18:01:44.985Z,3.17
2019-01-06T18:04:37.696Z,3.33
2019-01-06T18:13:30.677Z,3.40
2019-01-06T18:16:23.373Z,3.00
2019-01-06T18:22:10.248Z,3.33
2019-01-06T18:27:57.030Z,3.00
2019-01-06T18:30:49.689Z,3.00
2019-01-06T18:33:42.389Z,3.50
2019-01-06T18:36:35.049Z,3.23
2019-01-06T18:42:13.574Z,3.17
2019-01-06T18:45:09.193Z,3.70
2019-01-06T18:48:00.709Z,3.67
2019-01-06T18:50:53.411Z,3.80
2019-01-06T18:56:40.191Z,3.83
2019-01-06T18:59:32.922Z,4.37
2019-01-06T19:02:25.626Z,4.40
2019-01-06T19:05:18.268Z,4.30
2019-01-06T19:08:10.894Z,3.50
2019-01-06T19:11:03.625Z,4.03
2019-01-06T19:13:56.311Z,3.67
2019-01-06T19:16:48.897Z,3.50
2019-01-06T19:22:26.003Z,4.13
2019-01-06T19:30:57.249Z,4.50
2019-01-06T19:33:49.953Z,4.83
2019-01-06T19:36:42.639Z,4.27
2019-01-06T19:39:35.389Z,4.10
2019-01-06T19:42:28.071Z,3.90
2019-01-06T19:45:20.764Z,3.90
2019-01-06T19:48:13.425Z,3.83
2019-01-06T19:51:06.227Z,3.70
2019-01-06T19:53:59.103Z,4.10
2019-01-06T19:56:52.128Z,3.97
2019-01-06T19:59:44.779Z,4.10
2019-01-06T20:02:29.837Z,4.30
2019-01-06T20:05:22.581Z,4.40
2019-01-06T20:08:15.315Z,4.60
2019-01-06T20:11:08.040Z,4.60
2019-01-06T20:14:00.857Z,4.63
2019-01-06T20:16:53.513Z,4.83
2019-01-06T20:19:46.307Z,4.83
2019-01-06T20:25:33.199Z,4.83
2019-01-06T20:31:20.068Z,4.87
2019-01-06T20:34:12.750Z,4.70
2019-01-06T20:37:05.522Z,5.07
2019-01-06T20:39:58.174Z,4.83
2019-01-06T20:45:31.353Z,5.77
2019-01-06T20:48:24.054Z,5.47
2019-01-06T20:51:17.171Z,5.40
2019-01-06T20:54:10.062Z,6.70
2019-01-06T20:57:03.100Z,7.47
2019-01-06T20:59:56.141Z,7.90
2019-01-06T21:02:48.798Z,7.60
2019-01-06T21:05:41.523Z,8.67
2019-01-06T21:11:28.626Z,6.37
2019-01-06T21:14:21.293Z,5.90
2019-01-06T21:19:54.492Z,5.67
2019-01-06T21:22:47.217Z,6.47
2019-01-06T21:25:39.932Z,6.23
2019-01-06T21:28:32.709Z,6.07
2019-01-06T21:31:25.382Z,6.17
2019-01-06T21:34:18.093Z,6.50
2019-01-06T21:37:10.757Z,5.53
2019-01-06T21:40:03.489Z,5.53
2019-01-06T21:42:56.157Z,6.00
2019-01-06T21:45:49.042Z,5.70
2019-01-06T21:48:41.719Z,5.37
2019-01-06T21:54:18.304Z,5.10
2019-01-06T21:57:11.027Z,4.50
2019-01-06T22:00:03.919Z,5.13
2019-01-06T22:02:56.626Z,4.87
2019-01-06T22:05:49.289Z,5.00
2019-01-06T22:08:41.984Z,5.30
2019-01-06T22:11:34.639Z,6.23
2019-01-06T22:14:27.339Z,5.87
2019-01-06T22:17:20.023Z,6.00
2019-01-06T22:20:12.724Z,4.77
2019-01-06T22:23:05.726Z,5.17
2019-01-06T22:25:58.512Z,4.57
2019-01-06T22:28:52.314Z,4.27
2019-01-06T22:31:45.601Z,5.93
2019-01-06T22:37:32.387Z,5.10
2019-01-06T22:43:44.308Z,6.70
2019-01-06T22:52:15.732Z,5.80
2019-01-06T22:55:08.427Z,5.73
2019-01-06T22:58:01.127Z,6.17
2019-01-06T23:00:53.814Z,6.17
2019-01-06T23:03:46.505Z,6.17
2019-01-06T23:06:39.268Z,6.23
2019-01-06T23:09:31.882Z,7.03
2019-01-06T23:12:24.681Z,6.37
2019-01-06T23:15:17.362Z,7.10
2019-01-06T23:18:10.039Z,6.67
2019-01-06T23:26:37.134Z,6.90
2019-01-06T23:29:29.909Z,6.70
2019-01-06T23:32:22.637Z,7.13
2019-01-06T23:35:15.434Z,6.97
2019-01-06T23:38:08.123Z,6.13
2019-01-06T23:41:00.841Z,6.43
2019-01-06T23:43:53.510Z,7.27
2019-01-06T23:46:46.276Z,6.37
2019-01-06T23:49:39.063Z,6.70
2019-01-06T23:52:31.786Z,6.83
